DAUI

In Salah Airport

Airport
ICAO code
DAUI
IATA Code
INZ
Summary
ICAO Region
AFI
ICAO Territory
Location

, Tamanghasset

Serving
In Salah
Elevation
896 ft
Coordinates
27° 15' 4" N , 2° 30' 43" E
Metar
DAUI 041100Z 06018KT 3000 DRSA NSC 24/M07 Q1019

Runways

Designator Length Width Surface Rops
5/23 3000 45 ASP No/No

Airport map

Aerial View

SKYbrary Partners:

Safety knowledge contributed by: